createdAt,value
2018-12-17T00:00:33.495Z,99227.61
2018-12-17T00:03:00.937Z,99235.80
2018-12-17T00:05:28.369Z,99234.99
2018-12-17T00:07:55.834Z,99235.56
2018-12-17T00:10:23.249Z,99240.95
2018-12-17T00:12:50.731Z,99247.71
2018-12-17T00:15:18.136Z,99250.58
2018-12-17T00:17:45.569Z,99253.41
2018-12-17T00:20:13.033Z,99242.86
2018-12-17T00:22:40.497Z,99243.97
2018-12-17T00:25:07.911Z,99242.83
2018-12-17T00:27:35.348Z,99249.20
2018-12-17T00:30:03.380Z,99249.09
2018-12-17T00:32:30.911Z,99246.20
2018-12-17T00:34:58.349Z,99247.02
2018-12-17T00:37:25.848Z,99252.77
2018-12-17T00:39:53.295Z,99252.02
2018-12-17T00:42:20.735Z,99250.28
2018-12-17T00:44:48.176Z,99246.28
2018-12-17T00:47:15.619Z,99253.06
2018-12-17T00:49:43.059Z,99250.77
2018-12-17T00:52:10.479Z,99247.86
2018-12-17T00:54:37.901Z,99251.30
2018-12-17T00:57:05.349Z,99249.48
2018-12-17T00:59:32.759Z,99256.13
2018-12-17T01:02:00.194Z,99256.84
2018-12-17T01:04:27.620Z,99252.51
2018-12-17T01:06:55.058Z,99247.08
2018-12-17T01:09:22.492Z,99251.50
2018-12-17T01:11:49.927Z,99250.36
2018-12-17T01:14:17.358Z,99245.45
2018-12-17T01:16:44.806Z,99246.91
2018-12-17T01:19:12.256Z,99247.22
2018-12-17T01:21:39.714Z,99245.64
2018-12-17T01:24:07.130Z,99238.03
2018-12-17T01:26:34.559Z,99242.86
2018-12-17T01:29:01.980Z,99240.69
2018-12-17T01:31:29.496Z,99239.48
2018-12-17T01:33:56.904Z,99241.01
2018-12-17T01:36:24.335Z,99244.19
2018-12-17T01:38:51.812Z,99241.23
2018-12-17T01:41:19.233Z,99244.66
2018-12-17T01:43:46.706Z,99251.42
2018-12-17T01:46:14.169Z,99245.87
2018-12-17T01:48:41.650Z,99247.36
2018-12-17T01:51:09.147Z,99241.67
2018-12-17T01:53:36.611Z,99247.78
2018-12-17T01:56:04.062Z,99250.94
2018-12-17T01:58:31.542Z,99247.66
2018-12-17T02:00:58.980Z,99247.37
2018-12-17T02:03:26.463Z,99253.55
2018-12-17T02:05:53.866Z,99240.01
2018-12-17T02:08:21.381Z,99247.48
2018-12-17T02:10:48.782Z,99241.44
2018-12-17T02:13:16.195Z,99246.43
2018-12-17T02:15:43.659Z,99235.68
2018-12-17T02:18:11.171Z,99243.88
2018-12-17T02:20:38.611Z,99239.77
2018-12-17T02:23:06.902Z,99246.02
2018-12-17T02:25:34.407Z,99240.55
2018-12-17T02:28:01.863Z,99250.20
2018-12-17T02:30:29.397Z,99237.57
2018-12-17T02:32:56.856Z,99240.38
2018-12-17T02:35:25.230Z,99234.66
2018-12-17T02:37:51.772Z,99241.98
2018-12-17T02:40:19.196Z,99248.45
2018-12-17T02:42:46.645Z,99247.59
2018-12-17T02:45:14.112Z,99258.59
2018-12-17T02:47:41.535Z,99255.39
2018-12-17T02:50:08.970Z,99262.80
2018-12-17T02:52:36.385Z,99265.85
2018-12-17T02:55:03.883Z,99266.20
2018-12-17T02:57:32.449Z,99276.50
2018-12-17T02:59:58.784Z,99273.95
2018-12-17T03:02:26.226Z,99276.87
2018-12-17T03:04:53.651Z,99280.73
2018-12-17T03:07:21.125Z,99278.69
2018-12-17T03:09:48.556Z,99271.63
2018-12-17T03:12:15.973Z,99281.97
2018-12-17T03:14:43.402Z,99282.19
2018-12-17T03:17:10.838Z,99285.27
2018-12-17T03:19:38.300Z,99281.94
2018-12-17T03:22:05.737Z,99285.11
2018-12-17T03:24:33.151Z,99289.67
2018-12-17T03:27:00.623Z,99283.77
2018-12-17T03:29:28.070Z,99291.44
2018-12-17T03:31:55.533Z,99289.91
2018-12-17T03:34:22.971Z,99290.13
2018-12-17T03:36:50.393Z,99287.83
2018-12-17T03:39:17.841Z,99286.73
2018-12-17T03:41:45.264Z,99289.84
2018-12-17T03:44:12.703Z,99286.23
2018-12-17T03:46:40.126Z,99289.18
2018-12-17T03:49:07.567Z,99290.42
2018-12-17T03:51:35.000Z,99287.70
2018-12-17T03:54:02.439Z,99288.58
2018-12-17T03:56:29.863Z,99286.84
2018-12-17T03:58:59.392Z,99284.72
2018-12-17T04:01:24.768Z,99291.27
2018-12-17T04:03:52.227Z,99292.21
2018-12-17T04:06:19.660Z,99284.05
2018-12-17T04:08:47.109Z,99282.91
2018-12-17T04:11:14.518Z,99278.04
2018-12-17T04:13:41.940Z,99275.95
2018-12-17T04:16:09.402Z,99270.17
2018-12-17T04:18:36.849Z,99269.25
2018-12-17T04:21:04.576Z,99276.22
2018-12-17T04:23:32.015Z,99272.06
2018-12-17T04:25:59.480Z,99280.26
2018-12-17T04:28:26.952Z,99281.58
2018-12-17T04:30:54.432Z,99282.33
2018-12-17T04:33:21.963Z,99284.27
2018-12-17T04:35:49.333Z,99287.50
2018-12-17T04:38:17.681Z,99292.86
2018-12-17T04:40:45.226Z,99295.98
2018-12-17T04:43:12.671Z,99295.36
2018-12-17T04:45:40.084Z,99305.19
2018-12-17T04:48:07.537Z,99311.56
2018-12-17T04:50:34.968Z,99311.61
2018-12-17T04:53:02.407Z,99310.72
2018-12-17T04:55:29.855Z,99317.30
2018-12-17T04:57:57.295Z,99322.28
2018-12-17T05:00:24.713Z,99327.41
2018-12-17T05:02:52.208Z,99327.78
2018-12-17T05:05:19.646Z,99330.07
2018-12-17T05:07:47.064Z,99336.91
2018-12-17T05:10:14.508Z,99331.03
2018-12-17T05:12:41.951Z,99328.32
2018-12-17T05:15:09.398Z,99330.66
2018-12-17T05:17:36.862Z,99340.73
2018-12-17T05:20:04.298Z,99339.82
2018-12-17T05:22:32.702Z,99345.09
2018-12-17T05:25:00.248Z,99331.30
2018-12-17T05:27:27.651Z,99332.23
2018-12-17T05:29:55.069Z,99330.48
2018-12-17T05:32:22.509Z,99327.94
2018-12-17T05:34:49.963Z,99331.97
2018-12-17T05:37:17.391Z,99334.58
2018-12-17T05:39:44.848Z,99343.09
2018-12-17T05:42:12.274Z,99354.08
2018-12-17T05:44:39.732Z,99349.20
2018-12-17T05:47:07.161Z,99353.56
2018-12-17T05:49:34.610Z,99360.59
2018-12-17T05:52:02.051Z,99363.95
2018-12-17T05:54:29.483Z,99365.38
2018-12-17T05:56:56.889Z,99364.61
2018-12-17T05:59:28.553Z,99363.41
2018-12-17T06:01:51.770Z,99368.56
2018-12-17T06:04:19.215Z,99371.50
2018-12-17T06:06:46.646Z,99365.10
2018-12-17T06:09:14.075Z,99368.30
2018-12-17T06:11:41.511Z,99365.38
2018-12-17T06:14:08.934Z,99367.52
2018-12-17T06:16:36.338Z,99372.76
2018-12-17T06:19:03.781Z,99376.86
2018-12-17T06:21:31.202Z,99376.87
2018-12-17T06:23:58.634Z,99372.72
2018-12-17T06:26:26.077Z,99372.30
2018-12-17T06:28:53.513Z,99374.29
2018-12-17T06:31:20.936Z,99375.09
2018-12-17T06:33:48.406Z,99375.06
2018-12-17T06:36:15.811Z,99384.22
2018-12-17T06:38:43.263Z,99381.25
2018-12-17T06:41:10.733Z,99385.97
2018-12-17T06:43:38.174Z,99387.33
2018-12-17T06:46:05.636Z,99387.06
2018-12-17T06:48:33.106Z,99392.75
2018-12-17T06:51:00.557Z,99388.38
2018-12-17T06:53:27.987Z,99398.00
2018-12-17T06:55:55.408Z,99400.28
2018-12-17T06:58:22.843Z,99401.66
2018-12-17T07:00:50.278Z,99404.92
2018-12-17T07:03:17.713Z,99407.48
2018-12-17T07:05:45.162Z,99414.09
2018-12-17T07:08:12.596Z,99409.82
2018-12-17T07:10:40.014Z,99423.47
2018-12-17T07:13:07.453Z,99420.78
2018-12-17T07:15:34.893Z,99418.80
2018-12-17T07:18:02.346Z,99426.70
2018-12-17T07:20:29.766Z,99428.55
2018-12-17T07:22:57.189Z,99436.72
2018-12-17T07:25:24.613Z,99440.81
2018-12-17T07:27:52.022Z,99450.45
2018-12-17T07:30:19.462Z,99456.27
2018-12-17T07:32:46.886Z,99455.52
2018-12-17T07:35:14.333Z,99452.94
2018-12-17T07:37:41.743Z,99459.26
2018-12-17T07:40:09.185Z,99454.13
2018-12-17T07:42:36.587Z,99458.56
2018-12-17T07:45:05.259Z,99464.77
2018-12-17T07:47:31.490Z,99469.02
2018-12-17T07:49:58.911Z,99475.01
2018-12-17T07:52:26.333Z,99475.55
2018-12-17T07:54:54.170Z,99471.95
2018-12-17T07:57:21.595Z,99477.19
2018-12-17T07:59:49.000Z,99486.79
2018-12-17T08:02:16.462Z,99484.00
2018-12-17T08:04:43.909Z,99487.78
2018-12-17T08:07:11.337Z,99484.51
2018-12-17T08:09:38.802Z,99493.20
2018-12-17T08:12:06.208Z,99490.56
2018-12-17T08:14:33.702Z,99493.64
2018-12-17T08:17:02.024Z,99498.78
2018-12-17T08:19:29.701Z,99499.00
2018-12-17T08:21:57.150Z,99494.84
2018-12-17T08:24:24.596Z,99495.39
2018-12-17T08:26:52.006Z,99504.52
2018-12-17T08:29:19.423Z,99498.10
2018-12-17T08:31:46.850Z,99502.73
2018-12-17T08:34:14.268Z,99504.69
2018-12-17T08:36:41.691Z,99505.95
2018-12-17T08:39:09.371Z,99505.34
2018-12-17T08:41:36.849Z,99503.17
2018-12-17T08:44:04.275Z,99504.98
2018-12-17T08:46:31.693Z,99503.89
2018-12-17T08:48:59.133Z,99509.08
2018-12-17T08:51:26.578Z,99512.23
2018-12-17T08:53:54.037Z,99511.64
2018-12-17T08:56:21.586Z,99517.31
2018-12-17T08:58:49.026Z,99518.58
2018-12-17T09:01:16.457Z,99518.47
2018-12-17T09:03:43.976Z,99519.88
2018-12-17T09:06:11.393Z,99523.88
2018-12-17T09:08:38.836Z,99527.32
2018-12-17T09:11:06.293Z,99535.66
2018-12-17T09:13:33.730Z,99546.81
2018-12-17T09:16:01.189Z,99539.11
2018-12-17T09:18:28.649Z,99548.87
2018-12-17T09:20:56.092Z,99547.28
2018-12-17T09:23:23.532Z,99555.03
2018-12-17T09:25:50.962Z,99552.25
2018-12-17T09:28:18.384Z,99553.80
2018-12-17T09:30:45.826Z,99557.67
2018-12-17T09:33:13.267Z,99566.56
2018-12-17T09:35:40.703Z,99576.28
2018-12-17T09:38:08.130Z,99580.75
2018-12-17T09:40:35.546Z,99579.12
2018-12-17T09:43:02.989Z,99576.13
2018-12-17T09:45:30.439Z,99581.23
2018-12-17T09:47:57.866Z,99591.38
2018-12-17T09:50:25.308Z,99588.94
2018-12-17T09:52:52.761Z,99583.01
2018-12-17T09:55:20.174Z,99584.41
2018-12-17T09:57:47.610Z,99582.53
2018-12-17T10:00:15.041Z,99587.81
2018-12-17T10:02:42.493Z,99586.55
2018-12-17T10:05:09.927Z,99589.18
2018-12-17T10:07:37.379Z,99581.18
2018-12-17T10:10:04.790Z,99578.90
2018-12-17T10:12:32.258Z,99578.45
2018-12-17T10:14:59.686Z,99580.88
2018-12-17T10:17:27.125Z,99577.47
2018-12-17T10:19:55.259Z,99588.96
2018-12-17T10:22:22.688Z,99577.07
2018-12-17T10:24:50.151Z,99580.05
2018-12-17T10:27:17.583Z,99578.17
2018-12-17T10:29:45.002Z,99584.47
2018-12-17T10:32:12.469Z,99581.79
2018-12-17T10:34:39.894Z,99587.80
2018-12-17T10:37:07.338Z,99582.81
2018-12-17T10:39:34.754Z,99586.86
2018-12-17T10:42:02.201Z,99598.23
2018-12-17T10:44:29.615Z,99592.23
2018-12-17T10:46:57.099Z,99601.39
2018-12-17T10:49:24.551Z,99592.59
2018-12-17T10:51:51.998Z,99597.67
2018-12-17T10:54:19.479Z,99590.17
2018-12-17T10:56:46.902Z,99601.25
2018-12-17T10:59:14.335Z,99595.44
2018-12-17T11:01:47.277Z,99593.84
2018-12-17T11:04:14.707Z,99600.91
2018-12-17T11:06:42.137Z,99599.23
2018-12-17T11:09:09.548Z,99597.83
2018-12-17T11:11:36.975Z,99598.36
2018-12-17T11:14:04.405Z,99608.30
2018-12-17T11:16:31.857Z,99608.08
2018-12-17T11:18:59.274Z,99612.47
2018-12-17T11:21:26.703Z,99617.09
2018-12-17T11:23:54.173Z,99613.98
2018-12-17T11:26:21.630Z,99611.68
2018-12-17T11:28:49.075Z,99621.23
2018-12-17T11:31:16.510Z,99616.48
2018-12-17T11:33:43.950Z,99614.55
2018-12-17T11:36:11.391Z,99615.83
2018-12-17T11:38:38.838Z,99619.11
2018-12-17T11:41:06.309Z,99619.27
2018-12-17T11:43:33.776Z,99612.31
2018-12-17T11:46:01.208Z,99626.75
2018-12-17T11:48:28.640Z,99626.66
2018-12-17T11:50:56.047Z,99623.16
2018-12-17T11:53:23.497Z,99628.54
2018-12-17T11:55:50.927Z,99627.27
2018-12-17T11:58:18.377Z,99629.23
2018-12-17T12:00:45.787Z,99620.15
2018-12-17T12:03:13.259Z,99624.95
2018-12-17T12:05:40.716Z,99629.98
2018-12-17T12:08:08.169Z,99625.83
2018-12-17T12:10:35.621Z,99630.89
2018-12-17T12:13:03.819Z,99631.53
2018-12-17T12:15:31.268Z,99631.92
2018-12-17T12:17:58.711Z,99638.95
2018-12-17T12:20:26.162Z,99633.74
2018-12-17T12:22:53.588Z,99640.50
2018-12-17T12:25:21.019Z,99638.58
2018-12-17T12:27:48.450Z,99638.38
2018-12-17T12:30:15.886Z,99640.17
2018-12-17T12:32:43.306Z,99638.91
2018-12-17T12:35:10.766Z,99639.75
2018-12-17T12:37:38.201Z,99639.52
2018-12-17T12:40:05.653Z,99648.28
2018-12-17T12:42:33.080Z,99647.73
2018-12-17T12:45:00.525Z,99659.16
2018-12-17T12:47:27.947Z,99658.00
2018-12-17T12:49:55.410Z,99656.79
2018-12-17T12:52:22.847Z,99652.76
2018-12-17T12:54:50.281Z,99657.45
2018-12-17T12:57:17.711Z,99659.98
2018-12-17T12:59:45.154Z,99664.47
2018-12-17T13:02:12.603Z,99669.13
2018-12-17T13:04:40.049Z,99671.19
2018-12-17T13:07:07.528Z,99679.50
2018-12-17T13:09:34.963Z,99683.38
2018-12-17T13:12:02.409Z,99687.95
2018-12-17T13:14:29.827Z,99684.45
2018-12-17T13:16:57.278Z,99691.86
2018-12-17T13:19:24.765Z,99698.25
2018-12-17T13:21:52.192Z,99697.57
2018-12-17T13:24:19.641Z,99701.20
2018-12-17T13:26:47.052Z,99705.22
2018-12-17T13:29:14.505Z,99713.48
2018-12-17T13:31:41.927Z,99713.91
2018-12-17T13:34:09.337Z,99718.44
2018-12-17T13:36:37.851Z,99735.45
2018-12-17T13:39:05.369Z,99739.28
2018-12-17T13:41:32.791Z,99737.64
2018-12-17T13:44:00.223Z,99739.27
2018-12-17T13:46:27.715Z,99742.86
2018-12-17T13:48:55.207Z,99745.39
2018-12-17T13:51:28.247Z,99750.67
2018-12-17T13:53:55.682Z,99743.74
2018-12-17T13:56:23.119Z,99749.40
2018-12-17T13:58:50.808Z,99754.25
2018-12-17T14:01:21.818Z,99757.13
2018-12-17T14:03:45.818Z,99759.13
2018-12-17T14:06:14.895Z,99756.70
2018-12-17T14:08:40.736Z,99758.20
2018-12-17T14:11:08.161Z,99765.58
2018-12-17T14:13:35.611Z,99768.81
2018-12-17T14:16:08.565Z,99777.66
2018-12-17T14:18:41.520Z,99777.59
2018-12-17T14:21:14.490Z,99778.99
2018-12-17T14:23:41.906Z,99786.46
2018-12-17T14:26:09.349Z,99786.19
2018-12-17T14:28:36.793Z,99785.39
2018-12-17T14:31:04.250Z,99792.25
2018-12-17T14:33:31.701Z,99795.30
2018-12-17T14:36:04.590Z,99792.66
2018-12-17T14:38:32.061Z,99806.87
2018-12-17T14:40:59.489Z,99806.94
2018-12-17T14:43:26.935Z,99815.99
2018-12-17T14:45:54.456Z,99822.28
2018-12-17T14:48:21.874Z,99831.58
2018-12-17T14:50:49.335Z,99834.22
2018-12-17T14:53:16.783Z,99843.28
2018-12-17T14:55:44.221Z,99848.44
2018-12-17T14:58:11.624Z,99848.67
2018-12-17T15:00:39.142Z,99852.38
2018-12-17T15:03:06.495Z,99865.98
2018-12-17T15:05:34.816Z,99868.91
2018-12-17T15:08:02.417Z,99866.66
2018-12-17T15:10:29.867Z,99871.95
2018-12-17T15:12:57.286Z,99872.63
2018-12-17T15:15:24.721Z,99872.36
2018-12-17T15:17:52.170Z,99876.77
2018-12-17T15:20:19.591Z,99875.89
2018-12-17T15:22:47.049Z,99879.42
2018-12-17T15:25:14.494Z,99890.23
2018-12-17T15:27:42.186Z,99900.41
2018-12-17T15:30:10.334Z,99906.39
2018-12-17T15:32:38.299Z,99910.66
2018-12-17T15:35:05.798Z,99911.52
2018-12-17T15:37:33.215Z,99912.94
2018-12-17T15:40:00.645Z,99920.22
2018-12-17T15:42:28.087Z,99925.26
2018-12-17T15:44:55.527Z,99923.31
2018-12-17T15:47:22.967Z,99930.67
2018-12-17T15:49:50.402Z,99931.17
2018-12-17T15:52:17.891Z,99941.17
2018-12-17T15:54:45.345Z,99946.70
2018-12-17T15:57:12.825Z,99945.26
2018-12-17T15:59:41.079Z,99959.61
2018-12-17T16:02:08.510Z,99961.98
2018-12-17T16:04:35.941Z,99964.57
2018-12-17T16:07:04.277Z,99974.33
2018-12-17T16:09:31.728Z,99968.27
2018-12-17T16:11:59.181Z,99978.59
2018-12-17T16:14:26.601Z,99978.15
2018-12-17T16:16:54.018Z,99982.92
2018-12-17T16:19:21.465Z,99977.34
2018-12-17T16:21:48.914Z,99982.56
2018-12-17T16:24:16.336Z,99988.66
2018-12-17T16:26:43.780Z,99996.39
2018-12-17T16:29:11.259Z,99987.27
2018-12-17T16:31:38.676Z,99999.23
2018-12-17T16:34:06.117Z,100003.33
2018-12-17T16:36:33.576Z,100010.37
2018-12-17T16:39:01.005Z,100009.75
2018-12-17T16:41:28.449Z,100018.09
2018-12-17T16:43:55.906Z,100017.73
2018-12-17T16:46:23.940Z,100022.00
2018-12-17T16:48:51.479Z,100023.62
2018-12-17T16:51:18.916Z,100025.77
2018-12-17T16:53:46.372Z,100024.38
2018-12-17T16:56:13.817Z,100028.23
2018-12-17T16:58:41.270Z,100027.72
2018-12-17T17:01:08.724Z,100040.41
2018-12-17T17:03:36.146Z,100033.59
2018-12-17T17:06:03.574Z,100033.16
2018-12-17T17:08:31.298Z,100030.82
2018-12-17T17:10:58.832Z,100035.52
2018-12-17T17:13:26.260Z,100039.72
2018-12-17T17:15:53.691Z,100036.02
2018-12-17T17:18:21.138Z,100032.95
2018-12-17T17:20:48.609Z,100038.42
2018-12-17T17:23:16.026Z,100043.65
2018-12-17T17:25:43.450Z,100045.23
2018-12-17T17:28:10.915Z,100046.14
2018-12-17T17:30:38.724Z,100044.44
2018-12-17T17:33:06.272Z,100049.63
2018-12-17T17:35:33.717Z,100054.34
2018-12-17T17:38:01.177Z,100058.69
2018-12-17T17:40:28.612Z,100068.09
2018-12-17T17:42:56.091Z,100066.67
2018-12-17T17:45:23.515Z,100063.95
2018-12-17T17:47:50.987Z,100067.69
2018-12-17T17:50:18.423Z,100070.20
2018-12-17T17:52:45.892Z,100074.74
2018-12-17T17:55:13.327Z,100078.70
2018-12-17T17:57:40.802Z,100090.31
2018-12-17T18:00:08.234Z,100081.66
2018-12-17T18:02:35.718Z,100092.41
2018-12-17T18:05:04.206Z,100089.35
2018-12-17T18:07:31.668Z,100099.48
2018-12-17T18:09:59.115Z,100096.26
2018-12-17T18:12:26.545Z,100109.68
2018-12-17T18:14:54.021Z,100106.48
2018-12-17T18:17:21.453Z,100111.33
2018-12-17T18:19:48.921Z,100113.69
2018-12-17T18:22:16.356Z,100116.95
2018-12-17T18:24:43.817Z,100123.09
2018-12-17T18:27:11.348Z,100121.47
2018-12-17T18:29:38.818Z,100118.89
2018-12-17T18:32:06.250Z,100130.33
2018-12-17T18:34:33.724Z,100131.31
2018-12-17T18:37:01.170Z,100136.02
2018-12-17T18:39:28.633Z,100139.16
2018-12-17T18:41:56.068Z,100139.14
2018-12-17T18:44:23.535Z,100137.19
2018-12-17T18:46:50.986Z,100145.19
2018-12-17T18:49:18.437Z,100139.51
2018-12-17T18:51:45.893Z,100143.55
2018-12-17T18:54:13.320Z,100148.78
2018-12-17T18:56:40.746Z,100150.13
2018-12-17T18:59:08.197Z,100151.52
2018-12-17T19:01:35.675Z,100157.45
2018-12-17T19:04:03.099Z,100159.64
2018-12-17T19:06:30.564Z,100166.28
2018-12-17T19:08:58.018Z,100162.03
2018-12-17T19:11:25.460Z,100172.38
2018-12-17T19:13:52.907Z,100176.20
2018-12-17T19:16:21.175Z,100169.81
2018-12-17T19:18:48.640Z,100182.66
2018-12-17T19:21:16.071Z,100179.18
2018-12-17T19:23:43.515Z,100186.34
2018-12-17T19:26:10.962Z,100183.75
2018-12-17T19:28:38.416Z,100192.62
2018-12-17T19:31:05.877Z,100191.77
2018-12-17T19:33:33.312Z,100198.67
2018-12-17T19:36:00.748Z,100202.56
2018-12-17T19:38:28.209Z,100208.61
2018-12-17T19:40:55.663Z,100205.47
2018-12-17T19:43:23.086Z,100212.42
2018-12-17T19:45:50.549Z,100218.46
2018-12-17T19:48:17.974Z,100217.10
2018-12-17T19:50:45.441Z,100212.33
2018-12-17T19:53:12.883Z,100211.20
2018-12-17T19:55:40.355Z,100211.88
2018-12-17T19:58:07.804Z,100215.58
2018-12-17T20:00:36.284Z,100221.44
2018-12-17T20:03:04.302Z,100223.87
2018-12-17T20:05:31.753Z,100221.46
2018-12-17T20:07:59.188Z,100220.14
2018-12-17T20:10:26.666Z,100216.53
2018-12-17T20:12:54.118Z,100221.53
2018-12-17T20:15:21.559Z,100219.53
2018-12-17T20:17:49.070Z,100226.07
2018-12-17T20:20:16.536Z,100235.97
2018-12-17T20:22:44.033Z,100235.88
2018-12-17T20:25:11.455Z,100234.50
2018-12-17T20:27:38.920Z,100240.66
2018-12-17T20:30:06.362Z,100245.23
2018-12-17T20:32:33.845Z,100234.27
2018-12-17T20:35:02.283Z,100241.03
2018-12-17T20:37:33.866Z,100234.71
2018-12-17T20:40:01.295Z,100244.20
2018-12-17T20:42:28.746Z,100240.70
2018-12-17T20:44:56.210Z,100252.68
2018-12-17T20:47:23.668Z,100251.53
2018-12-17T20:49:51.131Z,100253.01
2018-12-17T20:52:18.552Z,100250.17
2018-12-17T20:54:46.017Z,100257.21
2018-12-17T20:57:13.499Z,100262.11
2018-12-17T20:59:40.997Z,100265.41
2018-12-17T21:02:08.432Z,100266.61
2018-12-17T21:04:35.868Z,100262.43
2018-12-17T21:07:04.351Z,100269.45
2018-12-17T21:09:31.854Z,100275.74
2018-12-17T21:11:59.320Z,100274.52
2018-12-17T21:14:26.795Z,100267.55
2018-12-17T21:16:54.257Z,100268.75
2018-12-17T21:19:21.695Z,100269.73
2018-12-17T21:21:49.144Z,100272.50
2018-12-17T21:24:16.586Z,100270.67
2018-12-17T21:26:44.097Z,100267.31
2018-12-17T21:29:12.504Z,100277.80
2018-12-17T21:31:40.045Z,100272.62
2018-12-17T21:34:07.497Z,100267.91
2018-12-17T21:36:34.980Z,100271.64
2018-12-17T21:39:02.434Z,100270.77
2018-12-17T21:41:29.877Z,100271.71
2018-12-17T21:43:57.317Z,100276.93
2018-12-17T21:46:24.798Z,100272.63
2018-12-17T21:48:52.241Z,100273.53
2018-12-17T21:51:19.720Z,100271.98
2018-12-17T21:53:47.164Z,100273.72
2018-12-17T21:56:14.927Z,100281.31
2018-12-17T21:58:42.379Z,100280.05
2018-12-17T22:01:09.814Z,100283.80
2018-12-17T22:03:37.266Z,100284.07
2018-12-17T22:06:04.770Z,100285.57
2018-12-17T22:08:32.233Z,100290.70
2018-12-17T22:10:59.963Z,100294.43
2018-12-17T22:13:27.466Z,100283.90
2018-12-17T22:15:54.918Z,100288.73
2018-12-17T22:18:22.370Z,100290.40
2018-12-17T22:20:49.823Z,100300.34
2018-12-17T22:23:17.269Z,100297.05
2018-12-17T22:25:44.739Z,100294.97
2018-12-17T22:28:12.573Z,100305.50
2018-12-17T22:30:40.034Z,100299.82
2018-12-17T22:33:07.558Z,100304.03
2018-12-17T22:35:35.017Z,100313.06
2018-12-17T22:38:02.449Z,100320.27
2018-12-17T22:40:29.922Z,100313.65
2018-12-17T22:42:57.373Z,100315.67
2018-12-17T22:45:24.840Z,100319.58
2018-12-17T22:47:52.330Z,100321.44
2018-12-17T22:50:19.797Z,100321.77
2018-12-17T22:52:47.235Z,100321.80
2018-12-17T22:55:14.796Z,100323.33
2018-12-17T22:57:42.238Z,100323.02
2018-12-17T23:00:09.685Z,100325.98
2018-12-17T23:02:37.141Z,100324.66
2018-12-17T23:05:04.585Z,100325.61
2018-12-17T23:07:32.047Z,100327.55
2018-12-17T23:10:11.244Z,100332.70
2018-12-17T23:12:50.398Z,100321.51
2018-12-17T23:15:29.651Z,100323.70
2018-12-17T23:17:56.555Z,100321.77
2018-12-17T23:20:23.981Z,100321.60
2018-12-17T23:22:51.444Z,100324.66
2018-12-17T23:25:18.884Z,100328.69
2018-12-17T23:27:47.218Z,100320.69
2018-12-17T23:30:14.661Z,100324.17
2018-12-17T23:32:42.113Z,100327.61
2018-12-17T23:35:09.531Z,100327.27
2018-12-17T23:37:36.953Z,100322.71
2018-12-17T23:40:04.399Z,100325.61
2018-12-17T23:42:31.847Z,100318.22
2018-12-17T23:44:59.311Z,100320.36
2018-12-17T23:47:26.791Z,100316.25
2018-12-17T23:49:54.250Z,100320.57
2018-12-17T23:52:21.710Z,100315.48
2018-12-17T23:54:49.205Z,100308.38
2018-12-17T23:57:16.658Z,100314.89
2018-12-17T23:59:44.078Z,100305.67
